METAR Data
IDs: Format: Raw Decoded Include TAF

Data at: 2139 UTC 18 Sep 2018

KPEO 182053Z AUTO 30006KT 10SM CLR 27/21 A2983 RMK AO2 SLP092 T02720206 56005
KPEO 181953Z AUTO 33006KT 10SM BKN034 BKN043 BKN050 26/20 A2983 RMK AO2 SLP093 T02610200
KPEO 181853Z AUTO 28006KT 10SM FEW040 SCT055 BKN065 27/20 A2983 RMK AO2 SLP094 T02720200
KPEO 181753Z AUTO 32009KT 10SM FEW031 SCT060 27/19 A2985 RMK AO2 SLP098 T02720194 10272 20200 58002
KPEO 181653Z AUTO 30005KT 10SM FEW024 SCT029 26/19 A2985 RMK AO2 SLP100 T02560194
KPEO 181632Z AUTO VRB06KT 10SM SCT024 BKN028 26/20 A2985 RMK AO2 T02610200
KPEO 181553Z AUTO VRB04KT 10SM SCT019 26/20 A2985 RMK AO2 SLP100 T02560200
KPEO 181551Z AUTO VRB05KT 10SM SCT019 26/20 A2985 RMK AO2
KPEO 181453Z AUTO 31005KT 10SM BKN017 OVC026 23/20 A2987 RMK AO2 SLP108 T02330200 50000
KPEO 181353Z AUTO 00000KT 10SM OVC029 23/19 A2987 RMK AO2 SLP108 T02280194
KPEO 181343Z AUTO 28003KT 10SM OVC029 22/19 A2987 RMK AO2 T02220194
KPEO 181253Z AUTO 23003KT 10SM FEW031 22/20 A2987 RMK AO2 SLP108 T02170200 $
KPEO 181153Z AUTO 00000KT 10SM FEW019 20/19 A2987 RMK AO2 SLP109 60003 70034 T02000189 10206 20194 52004 $
KPEO 181101Z AUTO 28004KT 10SM FEW026 BKN034 BKN041 20/19 A2986 RMK AO2 T02000189 $
KPEO 181053Z AUTO 28003KT 10SM BKN025 BKN034 OVC041 20/19 A2987 RMK AO2 SLP108 T02000189 $
KPEO 180953Z AUTO 26003KT 8SM BKN026 19/19 A2986 RMK AO2 SLP104 T01940189 $
KPEO 180949Z AUTO 00000KT 9SM FEW002 SCT026 BKN080 19/19 A2986 RMK AO2 $
KPEO 180853Z AUTO 00000KT 10SM FEW035 OVC070 20/19 A2985 RMK AO2 RAB29E38 SLP103 P0000 60003 T02000189 56011 $
KPEO 180800Z AUTO 00000KT 7SM SCT002 SCT035 BKN110 20/19 A2986 RMK AO2 T02000194 $
KPEO 180753Z AUTO 30003KT 7SM FEW037 FEW050 BKN110 19/19 A2986 RMK AO2 RAE27 SLP107 P0002 T01940194 $
KPEO 180653Z AUTO 22003KT 6SM -RA BR SCT001 BKN032 OVC047 20/19 A2987 RMK AO2 RAE0558B39 SLP109 P0001 T02000194 $
KPEO 180646Z AUTO 22003KT 4SM -RA BR SCT001 BKN032 OVC041 20/19 A2988 RMK AO2 RAE0558B39 P0001 T02000194 $
KPEO 180553Z AUTO 00000KT 7SM -RA BKN002 OVC070 20/19 A2989 RMK AO2 SLP114 P0002 60023 T02000194 10200 20194 58003 $
KPEO 180544Z AUTO 00000KT 7SM -RA BKN003 BKN017 OVC070 20/19 A2989 RMK AO2 P0002 T02000194 $
KPEO 180453Z AUTO 00000KT 9SM -RA FEW004 OVC014 20/19 A2990 RMK AO2 SLP116 P0005 T02000194 402440167 $
KPEO 180450Z AUTO 00000KT 8SM -RA FEW004 OVC014 20/19 A2989 RMK AO2 P0005 $
KPEO 180441Z AUTO 02003KT 7SM -RA BKN016 BKN034 OVC110 20/19 A2990 RMK AO2 P0005 T02000194 $
KPEO 180422Z AUTO 00000KT 6SM -RA BR FEW014 SCT029 OVC110 20/19 A2990 RMK AO2 P0002 T02000194 TSNO $
KPEO 180353Z AUTO 00000KT 9SM -RA SCT014 BKN025 OVC033 20/19 A2990 RMK AO2 SLP118 P0006 T02000194 TSNO $
KPEO 180329Z AUTO VRB03KT 6SM -RA BR BKN013 OVC100 20/19 A2989 RMK AO2 P0004 T02000194 TSNO $
KPEO 180253Z AUTO 01003KT 6SM RA BR SCT011 BKN049 BKN080 20/19 A2989 RMK AO2 RAB08 SLP115 P0002 60010 T02000194 55010 TSNO $
KPEO 180235Z AUTO 00000KT 10SM -RA FEW009 FEW014 SCT110 19/19 A2989 RMK AO2 RAB08 P0001 T01940194 TSNO $
KPEO 180225Z AUTO 32003KT 7SM -RA SCT009 BKN016 BKN050 20/19 A2989 RMK AO2 RAB08 P0001 T02000189 TSNO $
KPEO 180153Z AUTO 00000KT 10SM SCT008 SCT110 20/19 A2990 RMK AO2 RAE36 SLP117 P0002 T02000189 $
KPEO 180053Z AUTO 00000KT 7SM -RA SCT011 BKN065 OVC110 20/19 A2992 RMK AO2 SLP126 P0006 T02000194 $
KPEO 180035Z AUTO 00000KT 7SM -RA BKN011 BKN050 BKN120 20/19 A2992 RMK AO2 P0005 T02000194 $
KPEO 172353Z AUTO 00000KT 5SM RA BR BKN110 20/19 A2992 RMK AO2 SLP127 P0008 60008 T02000194 10244 20200 58017 $
KPEO 172253Z AUTO 13004KT 6SM -RA BR SCT032 BKN120 21/19 A2995 RMK AO2 RAB25 SLP136 P0000 T02060189 $
KPEO 172239Z AUTO 12003KT 10SM -RA SCT023 BKN031 BKN035 21/18 A2995 RMK AO2 RAB25 P0000 T02110183 $
KPEO 172205Z AUTO 14007KT 10SM BKN023 BKN085 22/18 A2996 RMK AO2 T02220183 $
KPEO 172153Z AUTO 17006KT 10SM FEW024 SCT080 22/18 A2996 RMK AO2 SLP139 T02220183 $
KPEO 172053Z AUTO 19005KT 10SM CLR 23/18 A2997 RMK AO2 SLP143 T02330183 56021 $
KPEO 171953Z AUTO 19007KT 10SM CLR 24/18 A2999 RMK AO2 SLP148 T02390183 $
KPEO 171853Z AUTO 18010G15KT 10SM CLR 24/18 A3001 RMK AO2 SLP154 T02440183 $
KPEO 171753Z AUTO 20010KT 10SM CLR 24/19 A3004 RMK AO2 SLP164 T02440189 10244 20194 58015 $
KPEO 171724Z AUTO 20010G16KT 10SM SCT026 24/18 A3005 RMK AO2 T02390183 $
KPEO 171705Z AUTO 20009KT 10SM BKN029 24/18 A3005 RMK AO2 T02390183 $
KPEO 171653Z AUTO 20010KT 10SM SCT030 24/18 A3005 RMK AO2 SLP171 T02390183 $
KPEO 171553Z AUTO 21009KT 10SM CLR 23/18 A3007 RMK AO2 SLP176 T02330178 $
KPEO 171453Z AUTO 19009G16KT 10SM CLR 22/18 A3008 RMK AO2 SLP181 T02220178 58010 $
KPEO 171353Z AUTO 20011KT 10SM CLR 22/18 A3009 RMK AO2 SLP184 T02170178 $
KPEO 171253Z AUTO 20008KT 10SM CLR 20/17 A3011 RMK AO2 SLP189 T02000172 $
KPEO 171153Z AUTO 19005KT 10SM CLR 19/17 A3011 RMK AO2 SLP191 T01940172 10194 20167 56003 $
KPEO 171053Z AUTO 20006KT 10SM CLR 19/17 A3011 RMK AO2 SLP191 T01890172 $
KPEO 170953Z AUTO 20003KT 10SM CLR 18/17 A3011 RMK AO2 SLP191 T01830172 $